sensor_id;sensor_type;location;lat;lon;timestamp;temperature;humidity
8939;DHT22;4504;48.810;9.172;2023-04-24T00:00:20;11.80;99.90
8939;DHT22;4504;48.810;9.172;2023-04-24T00:02:47;11.80;99.90
8939;DHT22;4504;48.810;9.172;2023-04-24T00:05:15;11.80;99.90
8939;DHT22;4504;48.810;9.172;2023-04-24T00:07:43;11.80;99.90
8939;DHT22;4504;48.810;9.172;2023-04-24T00:10:11;11.80;99.90
8939;DHT22;4504;48.810;9.172;2023-04-24T00:12:40;11.80;99.90
8939;DHT22;4504;48.810;9.172;2023-04-24T00:15:08;11.80;99.90
8939;DHT22;4504;48.810;9.172;2023-04-24T00:17:35;11.90;99.90
8939;DHT22;4504;48.810;9.172;2023-04-24T00:20:02;11.80;99.90
8939;DHT22;4504;48.810;9.172;2023-04-24T00:22:31;11.90;99.90
8939;DHT22;4504;48.810;9.172;2023-04-24T00:24:58;11.90;99.90
8939;DHT22;4504;48.810;9.172;2023-04-24T00:27:25;11.90;99.90
8939;DHT22;4504;48.810;9.172;2023-04-24T00:29:53;12.00;99.90
8939;DHT22;4504;48.810;9.172;2023-04-24T00:32:20;12.00;99.90
8939;DHT22;4504;48.810;9.172;2023-04-24T00:34:48;12.00;99.90
8939;DHT22;4504;48.810;9.172;2023-04-24T00:37:15;12.00;99.90
8939;DHT22;4504;48.810;9.172;2023-04-24T00:39:44;12.00;99.90
8939;DHT22;4504;48.810;9.172;2023-04-24T00:42:11;12.10;99.90
8939;DHT22;4504;48.810;9.172;2023-04-24T00:44:38;12.10;99.90
8939;DHT22;4504;48.810;9.172;2023-04-24T00:47:07;12.00;99.90
8939;DHT22;4504;48.810;9.172;2023-04-24T00:49:35;12.00;99.90
8939;DHT22;4504;48.810;9.172;2023-04-24T00:52:02;12.10;99.90
8939;DHT22;4504;48.810;9.172;2023-04-24T00:54:33;12.10;99.90
8939;DHT22;4504;48.810;9.172;2023-04-24T00:57:00;12.10;99.90
8939;DHT22;4504;48.810;9.172;2023-04-24T00:59:28;12.20;99.90
8939;DHT22;4504;48.810;9.172;2023-04-24T01:01:55;12.20;99.90
8939;DHT22;4504;48.810;9.172;2023-04-24T01:04:24;12.20;99.90
8939;DHT22;4504;48.810;9.172;2023-04-24T01:06:53;12.20;99.90
8939;DHT22;4504;48.810;9.172;2023-04-24T01:09:22;12.20;99.90
8939;DHT22;4504;48.810;9.172;2023-04-24T01:11:50;12.20;99.90
8939;DHT22;4504;48.810;9.172;2023-04-24T01:14:17;12.20;99.90
8939;DHT22;4504;48.810;9.172;2023-04-24T01:16:44;12.20;99.90
8939;DHT22;4504;48.810;9.172;2023-04-24T01:19:11;12.20;99.90
8939;DHT22;4504;48.810;9.172;2023-04-24T01:21:41;12.20;99.90
8939;DHT22;4504;48.810;9.172;2023-04-24T01:24:10;12.20;99.90
8939;DHT22;4504;48.810;9.172;2023-04-24T01:26:38;12.20;99.90
8939;DHT22;4504;48.810;9.172;2023-04-24T01:29:05;12.20;99.90
8939;DHT22;4504;48.810;9.172;2023-04-24T01:31:33;12.20;99.90
8939;DHT22;4504;48.810;9.172;2023-04-24T01:34:01;12.20;99.90
8939;DHT22;4504;48.810;9.172;2023-04-24T01:36:28;12.20;99.90
8939;DHT22;4504;48.810;9.172;2023-04-24T01:38:57;12.20;99.90
8939;DHT22;4504;48.810;9.172;2023-04-24T01:41:27;12.20;99.90
8939;DHT22;4504;48.810;9.172;2023-04-24T01:43:55;12.20;99.90
8939;DHT22;4504;48.810;9.172;2023-04-24T01:46:22;12.10;99.90
8939;DHT22;4504;48.810;9.172;2023-04-24T01:48:49;12.10;99.90
8939;DHT22;4504;48.810;9.172;2023-04-24T01:51:19;12.10;99.90
8939;DHT22;4504;48.810;9.172;2023-04-24T01:53:46;12.00;99.90
8939;DHT22;4504;48.810;9.172;2023-04-24T01:56:14;12.00;99.90
8939;DHT22;4504;48.810;9.172;2023-04-24T01:58:43;12.00;99.90
8939;DHT22;4504;48.810;9.172;2023-04-24T02:01:15;12.00;99.90
8939;DHT22;4504;48.810;9.172;2023-04-24T02:03:42;12.00;99.90
8939;DHT22;4504;48.810;9.172;2023-04-24T02:06:09;11.90;99.90
8939;DHT22;4504;48.810;9.172;2023-04-24T02:08:36;11.90;99.90
8939;DHT22;4504;48.810;9.172;2023-04-24T02:11:03;11.90;99.90
8939;DHT22;4504;48.810;9.172;2023-04-24T02:13:31;11.90;99.90
8939;DHT22;4504;48.810;9.172;2023-04-24T02:16:01;11.90;99.90
8939;DHT22;4504;48.810;9.172;2023-04-24T02:18:30;11.90;99.90
8939;DHT22;4504;48.810;9.172;2023-04-24T02:20:57;11.90;99.90
8939;DHT22;4504;48.810;9.172;2023-04-24T02:23:24;11.80;99.90
8939;DHT22;4504;48.810;9.172;2023-04-24T02:25:52;11.90;99.90
8939;DHT22;4504;48.810;9.172;2023-04-24T02:28:19;11.90;99.90
8939;DHT22;4504;48.810;9.172;2023-04-24T02:30:46;11.90;99.90
8939;DHT22;4504;48.810;9.172;2023-04-24T02:33:15;11.90;99.90
8939;DHT22;4504;48.810;9.172;2023-04-24T02:35:42;12.00;99.90
8939;DHT22;4504;48.810;9.172;2023-04-24T02:38:09;12.00;99.90
8939;DHT22;4504;48.810;9.172;2023-04-24T02:40:36;12.00;99.90
8939;DHT22;4504;48.810;9.172;2023-04-24T02:43:03;12.00;99.90
8939;DHT22;4504;48.810;9.172;2023-04-24T02:45:30;11.90;99.90
8939;DHT22;4504;48.810;9.172;2023-04-24T02:47:57;11.80;99.90
8939;DHT22;4504;48.810;9.172;2023-04-24T02:50:25;11.60;99.90
8939;DHT22;4504;48.810;9.172;2023-04-24T02:52:52;11.30;99.90
8939;DHT22;4504;48.810;9.172;2023-04-24T02:55:19;11.20;99.90
8939;DHT22;4504;48.810;9.172;2023-04-24T02:57:46;11.10;99.90
8939;DHT22;4504;48.810;9.172;2023-04-24T03:00:14;11.00;99.90
8939;DHT22;4504;48.810;9.172;2023-04-24T03:02:41;10.90;99.90
8939;DHT22;4504;48.810;9.172;2023-04-24T03:05:08;10.80;99.90
8939;DHT22;4504;48.810;9.172;2023-04-24T03:07:38;10.80;99.90
8939;DHT22;4504;48.810;9.172;2023-04-24T03:10:07;10.90;99.90
8939;DHT22;4504;48.810;9.172;2023-04-24T03:12:34;10.90;99.90
8939;DHT22;4504;48.810;9.172;2023-04-24T03:15:01;10.80;99.90
8939;DHT22;4504;48.810;9.172;2023-04-24T03:17:28;10.80;99.90
8939;DHT22;4504;48.810;9.172;2023-04-24T03:19:55;10.80;99.90
8939;DHT22;4504;48.810;9.172;2023-04-24T03:22:22;10.80;99.90
8939;DHT22;4504;48.810;9.172;2023-04-24T03:24:50;10.90;99.90
8939;DHT22;4504;48.810;9.172;2023-04-24T03:27:18;10.90;99.90
8939;DHT22;4504;48.810;9.172;2023-04-24T03:29:52;10.90;99.90
8939;DHT22;4504;48.810;9.172;2023-04-24T03:32:23;10.90;99.90
8939;DHT22;4504;48.810;9.172;2023-04-24T03:34:51;10.90;99.90
8939;DHT22;4504;48.810;9.172;2023-04-24T03:37:19;10.90;99.90
8939;DHT22;4504;48.810;9.172;2023-04-24T03:39:57;10.90;99.90
8939;DHT22;4504;48.810;9.172;2023-04-24T03:42:25;10.90;99.90
8939;DHT22;4504;48.810;9.172;2023-04-24T03:44:55;10.90;99.90
8939;DHT22;4504;48.810;9.172;2023-04-24T03:47:26;10.90;99.90
8939;DHT22;4504;48.810;9.172;2023-04-24T03:49:56;10.80;99.90
8939;DHT22;4504;48.810;9.172;2023-04-24T03:52:24;10.80;99.90
8939;DHT22;4504;48.810;9.172;2023-04-24T03:54:51;10.80;99.90
8939;DHT22;4504;48.810;9.172;2023-04-24T03:57:19;10.80;99.90
8939;DHT22;4504;48.810;9.172;2023-04-24T03:59:59;10.80;99.90
8939;DHT22;4504;48.810;9.172;2023-04-24T04:02:29;10.70;99.90
8939;DHT22;4504;48.810;9.172;2023-04-24T04:04:56;10.80;99.90
8939;DHT22;4504;48.810;9.172;2023-04-24T04:07:23;10.90;99.90
8939;DHT22;4504;48.810;9.172;2023-04-24T04:09:50;10.90;99.90
8939;DHT22;4504;48.810;9.172;2023-04-24T04:12:18;10.90;99.90
8939;DHT22;4504;48.810;9.172;2023-04-24T04:14:45;10.90;99.90
8939;DHT22;4504;48.810;9.172;2023-04-24T04:17:12;10.90;99.90
8939;DHT22;4504;48.810;9.172;2023-04-24T04:19:39;11.00;99.90
8939;DHT22;4504;48.810;9.172;2023-04-24T04:22:07;11.00;99.90
8939;DHT22;4504;48.810;9.172;2023-04-24T04:24:40;11.00;99.90
8939;DHT22;4504;48.810;9.172;2023-04-24T04:27:09;11.10;99.90
8939;DHT22;4504;48.810;9.172;2023-04-24T04:29:46;10.90;99.90
8939;DHT22;4504;48.810;9.172;2023-04-24T04:32:15;10.80;99.90
8939;DHT22;4504;48.810;9.172;2023-04-24T04:34:42;10.80;99.90
8939;DHT22;4504;48.810;9.172;2023-04-24T04:37:11;10.70;99.90
8939;DHT22;4504;48.810;9.172;2023-04-24T04:39:47;10.70;99.90
8939;DHT22;4504;48.810;9.172;2023-04-24T04:42:21;10.60;99.90
8939;DHT22;4504;48.810;9.172;2023-04-24T04:44:50;10.60;99.90
8939;DHT22;4504;48.810;9.172;2023-04-24T04:47:23;10.50;99.90
8939;DHT22;4504;48.810;9.172;2023-04-24T04:49:51;10.40;99.90
8939;DHT22;4504;48.810;9.172;2023-04-24T04:52:21;10.30;99.90
8939;DHT22;4504;48.810;9.172;2023-04-24T04:54:54;10.40;99.90
8939;DHT22;4504;48.810;9.172;2023-04-24T04:57:27;10.30;99.90
8939;DHT22;4504;48.810;9.172;2023-04-24T04:59:55;10.40;99.90
8939;DHT22;4504;48.810;9.172;2023-04-24T05:02:35;10.40;99.90
8939;DHT22;4504;48.810;9.172;2023-04-24T05:05:03;10.30;99.90
8939;DHT22;4504;48.810;9.172;2023-04-24T05:07:30;10.20;99.90
8939;DHT22;4504;48.810;9.172;2023-04-24T05:09:57;10.30;99.90
8939;DHT22;4504;48.810;9.172;2023-04-24T05:12:24;10.20;99.90
8939;DHT22;4504;48.810;9.172;2023-04-24T05:14:52;10.20;99.90
8939;DHT22;4504;48.810;9.172;2023-04-24T05:17:21;10.10;99.90
8939;DHT22;4504;48.810;9.172;2023-04-24T05:19:49;10.10;99.90
8939;DHT22;4504;48.810;9.172;2023-04-24T05:22:17;10.00;99.90
8939;DHT22;4504;48.810;9.172;2023-04-24T05:24:50;10.10;99.90
8939;DHT22;4504;48.810;9.172;2023-04-24T05:27:31;10.10;99.90
8939;DHT22;4504;48.810;9.172;2023-04-24T05:29:58;10.10;99.90
8939;DHT22;4504;48.810;9.172;2023-04-24T05:32:27;10.10;99.90
8939;DHT22;4504;48.810;9.172;2023-04-24T05:34:54;10.20;99.90
8939;DHT22;4504;48.810;9.172;2023-04-24T05:37:22;10.20;99.90
8939;DHT22;4504;48.810;9.172;2023-04-24T05:39:49;10.20;99.90
8939;DHT22;4504;48.810;9.172;2023-04-24T05:42:16;10.10;99.90
8939;DHT22;4504;48.810;9.172;2023-04-24T05:44:43;10.20;99.90
8939;DHT22;4504;48.810;9.172;2023-04-24T05:47:10;10.20;99.90
8939;DHT22;4504;48.810;9.172;2023-04-24T05:49:38;10.20;99.90
8939;DHT22;4504;48.810;9.172;2023-04-24T05:52:06;10.20;99.90
8939;DHT22;4504;48.810;9.172;2023-04-24T05:54:35;10.20;99.90
8939;DHT22;4504;48.810;9.172;2023-04-24T05:57:03;10.20;99.90
8939;DHT22;4504;48.810;9.172;2023-04-24T05:59:44;10.30;99.90
8939;DHT22;4504;48.810;9.172;2023-04-24T06:02:11;10.30;99.90
8939;DHT22;4504;48.810;9.172;2023-04-24T06:04:40;10.30;99.90
8939;DHT22;4504;48.810;9.172;2023-04-24T06:07:07;10.30;99.90
8939;DHT22;4504;48.810;9.172;2023-04-24T06:09:34;10.30;99.90
8939;DHT22;4504;48.810;9.172;2023-04-24T06:12:02;10.30;99.90
8939;DHT22;4504;48.810;9.172;2023-04-24T06:14:44;10.20;99.90
8939;DHT22;4504;48.810;9.172;2023-04-24T06:17:31;10.20;99.90
8939;DHT22;4504;48.810;9.172;2023-04-24T06:20:00;10.20;99.90
8939;DHT22;4504;48.810;9.172;2023-04-24T06:22:27;10.20;99.90
8939;DHT22;4504;48.810;9.172;2023-04-24T06:24:54;10.20;99.90
8939;DHT22;4504;48.810;9.172;2023-04-24T06:27:21;10.20;99.90
8939;DHT22;4504;48.810;9.172;2023-04-24T06:29:48;10.30;99.90
8939;DHT22;4504;48.810;9.172;2023-04-24T06:32:20;10.40;99.90
8939;DHT22;4504;48.810;9.172;2023-04-24T06:34:47;10.60;99.90
8939;DHT22;4504;48.810;9.172;2023-04-24T06:37:16;10.80;99.90
8939;DHT22;4504;48.810;9.172;2023-04-24T06:39:43;10.90;99.90
8939;DHT22;4504;48.810;9.172;2023-04-24T06:42:09;11.10;99.90
8939;DHT22;4504;48.810;9.172;2023-04-24T06:44:36;11.10;99.90
8939;DHT22;4504;48.810;9.172;2023-04-24T06:47:06;11.10;99.90
8939;DHT22;4504;48.810;9.172;2023-04-24T06:49:34;11.10;99.90
8939;DHT22;4504;48.810;9.172;2023-04-24T06:52:01;11.10;99.90
8939;DHT22;4504;48.810;9.172;2023-04-24T06:54:29;11.20;99.90
8939;DHT22;4504;48.810;9.172;2023-04-24T06:56:56;11.30;99.90
8939;DHT22;4504;48.810;9.172;2023-04-24T06:59:23;11.50;99.90
8939;DHT22;4504;48.810;9.172;2023-04-24T07:01:50;11.60;99.90
8939;DHT22;4504;48.810;9.172;2023-04-24T07:04:17;11.50;99.90
8939;DHT22;4504;48.810;9.172;2023-04-24T07:06:45;11.50;99.90
8939;DHT22;4504;48.810;9.172;2023-04-24T07:09:12;11.70;99.90
8939;DHT22;4504;48.810;9.172;2023-04-24T07:11:42;11.80;99.90
8939;DHT22;4504;48.810;9.172;2023-04-24T07:14:10;11.80;99.90
8939;DHT22;4504;48.810;9.172;2023-04-24T07:16:37;11.80;99.90
8939;DHT22;4504;48.810;9.172;2023-04-24T07:19:05;11.80;99.90
8939;DHT22;4504;48.810;9.172;2023-04-24T07:21:32;11.80;99.90
8939;DHT22;4504;48.810;9.172;2023-04-24T07:23:59;11.80;99.90
8939;DHT22;4504;48.810;9.172;2023-04-24T07:26:26;11.80;99.90
8939;DHT22;4504;48.810;9.172;2023-04-24T07:28:55;11.90;99.90
8939;DHT22;4504;48.810;9.172;2023-04-24T07:31:22;11.70;99.90
8939;DHT22;4504;48.810;9.172;2023-04-24T07:33:49;11.80;99.90
8939;DHT22;4504;48.810;9.172;2023-04-24T07:36:16;11.80;99.90
8939;DHT22;4504;48.810;9.172;2023-04-24T07:38:44;11.80;99.90
8939;DHT22;4504;48.810;9.172;2023-04-24T07:41:11;11.90;99.90
8939;DHT22;4504;48.810;9.172;2023-04-24T07:43:38;12.10;99.90
8939;DHT22;4504;48.810;9.172;2023-04-24T07:46:07;12.00;99.90
8939;DHT22;4504;48.810;9.172;2023-04-24T07:48:34;12.10;99.90
8939;DHT22;4504;48.810;9.172;2023-04-24T07:51:01;12.20;99.90
8939;DHT22;4504;48.810;9.172;2023-04-24T07:53:28;12.20;99.90
8939;DHT22;4504;48.810;9.172;2023-04-24T07:55:56;12.10;99.90
8939;DHT22;4504;48.810;9.172;2023-04-24T07:58:23;12.00;99.90
8939;DHT22;4504;48.810;9.172;2023-04-24T08:00:50;11.80;98.90
8939;DHT22;4504;48.810;9.172;2023-04-24T08:03:19;11.70;98.90
8939;DHT22;4504;48.810;9.172;2023-04-24T08:05:46;11.60;99.10
8939;DHT22;4504;48.810;9.172;2023-04-24T08:08:13;11.50;98.40
8939;DHT22;4504;48.810;9.172;2023-04-24T08:10:40;11.60;98.60
8939;DHT22;4504;48.810;9.172;2023-04-24T08:13:07;11.70;98.90
8939;DHT22;4504;48.810;9.172;2023-04-24T08:15:34;11.70;98.70
8939;DHT22;4504;48.810;9.172;2023-04-24T08:18:01;11.80;98.60
8939;DHT22;4504;48.810;9.172;2023-04-24T08:20:29;11.90;99.00
8939;DHT22;4504;48.810;9.172;2023-04-24T08:22:56;12.00;98.40
8939;DHT22;4504;48.810;9.172;2023-04-24T08:25:23;12.00;97.80
8939;DHT22;4504;48.810;9.172;2023-04-24T08:27:50;12.10;98.10
8939;DHT22;4504;48.810;9.172;2023-04-24T08:30:17;12.10;97.70
8939;DHT22;4504;48.810;9.172;2023-04-24T08:32:44;12.00;98.00
8939;DHT22;4504;48.810;9.172;2023-04-24T08:35:11;11.90;96.90
8939;DHT22;4504;48.810;9.172;2023-04-24T08:37:40;11.90;97.50
8939;DHT22;4504;48.810;9.172;2023-04-24T08:40:15;11.90;97.70
8939;DHT22;4504;48.810;9.172;2023-04-24T08:42:42;12.10;97.90
8939;DHT22;4504;48.810;9.172;2023-04-24T08:45:11;12.10;97.50
8939;DHT22;4504;48.810;9.172;2023-04-24T08:47:38;12.20;97.40
8939;DHT22;4504;48.810;9.172;2023-04-24T08:50:07;12.20;97.70
8939;DHT22;4504;48.810;9.172;2023-04-24T08:52:35;12.10;97.60
8939;DHT22;4504;48.810;9.172;2023-04-24T08:55:05;11.80;97.70
8939;DHT22;4504;48.810;9.172;2023-04-24T08:57:32;11.50;98.00
8939;DHT22;4504;48.810;9.172;2023-04-24T09:00:01;11.40;99.20
8939;DHT22;4504;48.810;9.172;2023-04-24T09:02:28;11.70;99.80
8939;DHT22;4504;48.810;9.172;2023-04-24T09:04:58;11.80;99.90
8939;DHT22;4504;48.810;9.172;2023-04-24T09:07:26;11.90;99.20
8939;DHT22;4504;48.810;9.172;2023-04-24T09:09:54;12.00;98.90
8939;DHT22;4504;48.810;9.172;2023-04-24T09:12:22;12.10;99.10
8939;DHT22;4504;48.810;9.172;2023-04-24T09:14:50;12.00;98.50
8939;DHT22;4504;48.810;9.172;2023-04-24T09:17:17;11.80;98.60
8939;DHT22;4504;48.810;9.172;2023-04-24T09:19:44;11.40;99.70
8939;DHT22;4504;48.810;9.172;2023-04-24T09:22:11;11.10;99.90
8939;DHT22;4504;48.810;9.172;2023-04-24T09:24:38;10.90;99.90
8939;DHT22;4504;48.810;9.172;2023-04-24T09:27:05;10.60;99.90
8939;DHT22;4504;48.810;9.172;2023-04-24T09:29:35;10.30;99.90
8939;DHT22;4504;48.810;9.172;2023-04-24T09:32:18;10.20;99.90
8939;DHT22;4504;48.810;9.172;2023-04-24T09:34:47;10.40;99.90
8939;DHT22;4504;48.810;9.172;2023-04-24T09:37:27;10.70;99.90
8939;DHT22;4504;48.810;9.172;2023-04-24T09:40:11;10.90;99.90
8939;DHT22;4504;48.810;9.172;2023-04-24T09:42:38;10.90;99.90
8939;DHT22;4504;48.810;9.172;2023-04-24T09:45:10;11.10;99.90
8939;DHT22;4504;48.810;9.172;2023-04-24T09:47:38;11.50;99.90
8939;DHT22;4504;48.810;9.172;2023-04-24T09:50:16;11.40;99.90
8939;DHT22;4504;48.810;9.172;2023-04-24T09:52:44;11.30;99.90
8939;DHT22;4504;48.810;9.172;2023-04-24T09:55:21;11.30;99.90
8939;DHT22;4504;48.810;9.172;2023-04-24T09:57:50;11.40;99.90
8939;DHT22;4504;48.810;9.172;2023-04-24T10:00:26;11.60;99.90
8939;DHT22;4504;48.810;9.172;2023-04-24T10:02:57;11.70;99.60
8939;DHT22;4504;48.810;9.172;2023-04-24T10:05:27;11.60;98.30
8939;DHT22;4504;48.810;9.172;2023-04-24T10:08:01;11.70;98.30
8939;DHT22;4504;48.810;9.172;2023-04-24T10:10:28;11.90;98.60
8939;DHT22;4504;48.810;9.172;2023-04-24T10:12:55;11.80;97.50
8939;DHT22;4504;48.810;9.172;2023-04-24T10:15:22;11.90;97.80
8939;DHT22;4504;48.810;9.172;2023-04-24T10:17:52;12.10;97.30
8939;DHT22;4504;48.810;9.172;2023-04-24T10:20:21;12.20;96.20
8939;DHT22;4504;48.810;9.172;2023-04-24T10:22:49;12.50;95.60
8939;DHT22;4504;48.810;9.172;2023-04-24T10:25:19;12.70;94.10
8939;DHT22;4504;48.810;9.172;2023-04-24T10:27:47;12.60;93.80
8939;DHT22;4504;48.810;9.172;2023-04-24T10:30:15;12.80;93.60
8939;DHT22;4504;48.810;9.172;2023-04-24T10:32:42;12.60;92.70
8939;DHT22;4504;48.810;9.172;2023-04-24T10:35:12;12.50;93.30
8939;DHT22;4504;48.810;9.172;2023-04-24T10:37:42;12.40;93.10
8939;DHT22;4504;48.810;9.172;2023-04-24T10:40:11;12.40;93.30
8939;DHT22;4504;48.810;9.172;2023-04-24T10:42:42;12.50;93.40
8939;DHT22;4504;48.810;9.172;2023-04-24T10:45:17;12.30;93.10
8939;DHT22;4504;48.810;9.172;2023-04-24T10:47:51;12.10;93.50
8939;DHT22;4504;48.810;9.172;2023-04-24T10:50:20;12.20;94.00
8939;DHT22;4504;48.810;9.172;2023-04-24T10:52:48;12.20;94.40
8939;DHT22;4504;48.810;9.172;2023-04-24T10:55:17;12.20;94.50
8939;DHT22;4504;48.810;9.172;2023-04-24T10:58:04;12.20;94.10
8939;DHT22;4504;48.810;9.172;2023-04-24T11:00:31;12.30;93.90
8939;DHT22;4504;48.810;9.172;2023-04-24T11:02:58;12.20;94.00
8939;DHT22;4504;48.810;9.172;2023-04-24T11:05:51;12.00;94.20
8939;DHT22;4504;48.810;9.172;2023-04-24T11:08:30;12.10;94.70
8939;DHT22;4504;48.810;9.172;2023-04-24T11:11:00;12.10;94.80
8939;DHT22;4504;48.810;9.172;2023-04-24T11:16:35;11.80;95.50
8939;DHT22;4504;48.810;9.172;2023-04-24T11:19:06;11.80;95.50
8939;DHT22;4504;48.810;9.172;2023-04-24T11:21:43;11.80;95.40
8939;DHT22;4504;48.810;9.172;2023-04-24T11:24:27;11.90;95.60
8939;DHT22;4504;48.810;9.172;2023-04-24T11:26:55;12.20;94.80
8939;DHT22;4504;48.810;9.172;2023-04-24T11:29:23;12.40;94.20
8939;DHT22;4504;48.810;9.172;2023-04-24T11:32:15;12.50;93.80
8939;DHT22;4504;48.810;9.172;2023-04-24T11:34:45;12.80;93.40
8939;DHT22;4504;48.810;9.172;2023-04-24T11:37:14;13.20;92.50
8939;DHT22;4504;48.810;9.172;2023-04-24T11:39:41;13.20;92.90
8939;DHT22;4504;48.810;9.172;2023-04-24T11:42:09;13.50;92.80
8939;DHT22;4504;48.810;9.172;2023-04-24T11:44:36;12.80;92.80
8939;DHT22;4504;48.810;9.172;2023-04-24T11:47:04;12.80;93.40
8939;DHT22;4504;48.810;9.172;2023-04-24T11:49:32;12.70;93.70
8939;DHT22;4504;48.810;9.172;2023-04-24T11:52:00;12.60;94.20
8939;DHT22;4504;48.810;9.172;2023-04-24T11:54:28;12.20;96.10
8939;DHT22;4504;48.810;9.172;2023-04-24T11:56:56;12.00;97.10
8939;DHT22;4504;48.810;9.172;2023-04-24T11:59:23;11.90;96.00
8939;DHT22;4504;48.810;9.172;2023-04-24T12:01:50;12.20;96.40
8939;DHT22;4504;48.810;9.172;2023-04-24T12:04:18;12.70;95.90
8939;DHT22;4504;48.810;9.172;2023-04-24T12:07:00;13.10;94.30
8939;DHT22;4504;48.810;9.172;2023-04-24T12:09:28;13.30;94.30
8939;DHT22;4504;48.810;9.172;2023-04-24T12:11:56;12.50;94.30
8939;DHT22;4504;48.810;9.172;2023-04-24T12:14:23;12.60;94.90
8939;DHT22;4504;48.810;9.172;2023-04-24T12:16:51;12.50;94.50
8939;DHT22;4504;48.810;9.172;2023-04-24T12:19:20;12.60;94.60
8939;DHT22;4504;48.810;9.172;2023-04-24T12:21:59;12.40;95.00
8939;DHT22;4504;48.810;9.172;2023-04-24T12:24:28;12.40;95.20
8939;DHT22;4504;48.810;9.172;2023-04-24T12:26:56;12.20;95.00
8939;DHT22;4504;48.810;9.172;2023-04-24T12:29:24;12.20;94.70
8939;DHT22;4504;48.810;9.172;2023-04-24T12:31:51;12.30;95.00
8939;DHT22;4504;48.810;9.172;2023-04-24T12:34:19;12.50;94.90
8939;DHT22;4504;48.810;9.172;2023-04-24T12:36:47;12.40;94.60
8939;DHT22;4504;48.810;9.172;2023-04-24T12:39:17;12.30;94.80
8939;DHT22;4504;48.810;9.172;2023-04-24T12:41:56;12.20;94.80
8939;DHT22;4504;48.810;9.172;2023-04-24T12:44:30;12.10;94.70
8939;DHT22;4504;48.810;9.172;2023-04-24T12:46:58;12.10;94.80
8939;DHT22;4504;48.810;9.172;2023-04-24T12:49:25;12.10;94.80
8939;DHT22;4504;48.810;9.172;2023-04-24T12:51:52;12.40;95.10
8939;DHT22;4504;48.810;9.172;2023-04-24T12:54:19;12.60;95.80
8939;DHT22;4504;48.810;9.172;2023-04-24T12:56:46;12.40;94.90
8939;DHT22;4504;48.810;9.172;2023-04-24T12:59:14;12.30;94.50
8939;DHT22;4504;48.810;9.172;2023-04-24T13:01:41;12.10;95.70
8939;DHT22;4504;48.810;9.172;2023-04-24T13:04:08;11.70;98.90
8939;DHT22;4504;48.810;9.172;2023-04-24T13:06:35;11.30;99.90
8939;DHT22;4504;48.810;9.172;2023-04-24T13:09:02;10.90;99.90
8939;DHT22;4504;48.810;9.172;2023-04-24T13:11:30;10.90;99.90
8939;DHT22;4504;48.810;9.172;2023-04-24T13:13:57;11.10;99.90
8939;DHT22;4504;48.810;9.172;2023-04-24T13:16:25;11.50;99.90
8939;DHT22;4504;48.810;9.172;2023-04-24T13:18:52;12.10;99.90
8939;DHT22;4504;48.810;9.172;2023-04-24T13:21:19;12.50;99.90
8939;DHT22;4504;48.810;9.172;2023-04-24T13:23:46;12.40;99.90
8939;DHT22;4504;48.810;9.172;2023-04-24T13:26:13;12.10;99.90
8939;DHT22;4504;48.810;9.172;2023-04-24T13:28:40;12.00;99.90
8939;DHT22;4504;48.810;9.172;2023-04-24T13:31:07;11.80;99.90
8939;DHT22;4504;48.810;9.172;2023-04-24T13:33:35;11.90;99.90
8939;DHT22;4504;48.810;9.172;2023-04-24T13:36:02;12.00;99.90
8939;DHT22;4504;48.810;9.172;2023-04-24T13:38:29;12.00;99.20
8939;DHT22;4504;48.810;9.172;2023-04-24T13:40:57;11.80;98.80
8939;DHT22;4504;48.810;9.172;2023-04-24T13:43:24;11.80;99.20
8939;DHT22;4504;48.810;9.172;2023-04-24T13:45:51;12.10;99.90
8939;DHT22;4504;48.810;9.172;2023-04-24T13:48:18;12.20;99.10
8939;DHT22;4504;48.810;9.172;2023-04-24T13:50:46;12.10;99.00
8939;DHT22;4504;48.810;9.172;2023-04-24T13:53:15;11.50;99.90
8939;DHT22;4504;48.810;9.172;2023-04-24T13:55:42;11.50;99.90
8939;DHT22;4504;48.810;9.172;2023-04-24T13:58:09;11.80;99.90
8939;DHT22;4504;48.810;9.172;2023-04-24T14:00:36;11.80;99.90
8939;DHT22;4504;48.810;9.172;2023-04-24T14:03:03;11.90;99.90
8939;DHT22;4504;48.810;9.172;2023-04-24T14:05:30;11.80;99.90
8939;DHT22;4504;48.810;9.172;2023-04-24T14:07:59;12.30;99.90
8939;DHT22;4504;48.810;9.172;2023-04-24T14:10:26;12.80;99.90
8939;DHT22;4504;48.810;9.172;2023-04-24T14:12:53;12.90;99.90
8939;DHT22;4504;48.810;9.172;2023-04-24T14:15:20;13.20;99.90
8939;DHT22;4504;48.810;9.172;2023-04-24T14:17:48;14.00;99.90
8939;DHT22;4504;48.810;9.172;2023-04-24T14:20:15;14.10;98.30
8939;DHT22;4504;48.810;9.172;2023-04-24T14:22:42;13.60;98.80
8939;DHT22;4504;48.810;9.172;2023-04-24T14:25:10;13.90;98.30
8939;DHT22;4504;48.810;9.172;2023-04-24T14:27:37;13.60;96.80
8939;DHT22;4504;48.810;9.172;2023-04-24T14:30:07;13.40;97.00
8939;DHT22;4504;48.810;9.172;2023-04-24T14:32:34;13.60;96.40
8939;DHT22;4504;48.810;9.172;2023-04-24T14:35:01;14.00;96.50
8939;DHT22;4504;48.810;9.172;2023-04-24T14:37:28;13.90;96.10
8939;DHT22;4504;48.810;9.172;2023-04-24T14:39:55;13.70;96.30
8939;DHT22;4504;48.810;9.172;2023-04-24T14:42:24;12.90;97.50
8939;DHT22;4504;48.810;9.172;2023-04-24T14:44:51;12.80;97.90
8939;DHT22;4504;48.810;9.172;2023-04-24T14:47:18;12.60;98.40
8939;DHT22;4504;48.810;9.172;2023-04-24T14:49:46;12.50;98.40
8939;DHT22;4504;48.810;9.172;2023-04-24T14:52:13;12.30;98.20
8939;DHT22;4504;48.810;9.172;2023-04-24T14:54:41;12.10;98.90
8939;DHT22;4504;48.810;9.172;2023-04-24T14:57:08;12.30;98.80
8939;DHT22;4504;48.810;9.172;2023-04-24T14:59:37;12.40;98.90
8939;DHT22;4504;48.810;9.172;2023-04-24T15:02:05;12.60;98.20
8939;DHT22;4504;48.810;9.172;2023-04-24T15:04:32;12.90;98.20
8939;DHT22;4504;48.810;9.172;2023-04-24T15:07:00;13.60;97.20
8939;DHT22;4504;48.810;9.172;2023-04-24T15:09:27;14.20;95.10
8939;DHT22;4504;48.810;9.172;2023-04-24T15:11:54;13.40;95.30
8939;DHT22;4504;48.810;9.172;2023-04-24T15:14:22;13.10;96.20
8939;DHT22;4504;48.810;9.172;2023-04-24T15:16:50;13.10;96.20
8939;DHT22;4504;48.810;9.172;2023-04-24T15:19:17;13.00;97.00
8939;DHT22;4504;48.810;9.172;2023-04-24T15:21:44;13.00;97.20
8939;DHT22;4504;48.810;9.172;2023-04-24T15:24:11;12.90;96.90
8939;DHT22;4504;48.810;9.172;2023-04-24T15:26:38;12.60;97.30
8939;DHT22;4504;48.810;9.172;2023-04-24T15:29:05;12.40;97.30
8939;DHT22;4504;48.810;9.172;2023-04-24T15:31:32;12.20;97.80
8939;DHT22;4504;48.810;9.172;2023-04-24T15:34:00;12.30;98.60
8939;DHT22;4504;48.810;9.172;2023-04-24T15:36:27;12.10;99.90
8939;DHT22;4504;48.810;9.172;2023-04-24T15:38:54;11.70;99.90
8939;DHT22;4504;48.810;9.172;2023-04-24T15:41:21;11.10;99.90
8939;DHT22;4504;48.810;9.172;2023-04-24T15:43:48;11.00;99.90
8939;DHT22;4504;48.810;9.172;2023-04-24T15:46:15;11.10;99.90
8939;DHT22;4504;48.810;9.172;2023-04-24T15:48:42;10.90;99.90
8939;DHT22;4504;48.810;9.172;2023-04-24T15:51:10;11.00;99.90
8939;DHT22;4504;48.810;9.172;2023-04-24T15:53:37;11.00;99.90
8939;DHT22;4504;48.810;9.172;2023-04-24T15:56:04;11.20;99.90
8939;DHT22;4504;48.810;9.172;2023-04-24T15:58:31;11.40;99.90
8939;DHT22;4504;48.810;9.172;2023-04-24T16:00:59;11.90;99.90
8939;DHT22;4504;48.810;9.172;2023-04-24T16:03:26;12.40;99.90
8939;DHT22;4504;48.810;9.172;2023-04-24T16:05:53;12.30;99.90
8939;DHT22;4504;48.810;9.172;2023-04-24T16:08:21;12.10;99.90
8939;DHT22;4504;48.810;9.172;2023-04-24T16:10:48;12.00;99.90
8939;DHT22;4504;48.810;9.172;2023-04-24T16:13:15;12.30;99.90